Time;durP1;ratioP1;P1;durP2;ratioP2;P2;SDS_P1;SDS_P2;PMS_P1;PMS_P2;Temp;Humidity;BMP_temperature;BMP_pressure;BME280_temperature;BME280_humidity;BME280_pressure;Samples;Min_cycle;Max_cycle;Signal;HPM_P1;HPM_P2
2022/12/09 00:01:14;;;;;;;;;;;;;;;0.70;100.00;100613.09;5057914;28;19920;-62
2022/12/09 00:03:39;;;;;;;;;;;;;;;0.72;100.00;100606.19;5075789;28;19973;-60
2022/12/09 00:06:09;;;;;;;;;;;;;;;0.71;100.00;100604.47;5075968;28;19920;-62
2022/12/09 00:08:34;;;;;;;;;;;;;;;0.72;100.00;100605.34;5076030;28;19912;-61
2022/12/09 00:10:59;;;;;;;;;;;;;;;0.73;100.00;100601.91;5057565;28;20283;-61
2022/12/09 00:13:24;;;;;;;;;;;;;;;0.73;100.00;100604.47;5075717;28;19924;-61
2022/12/09 00:15:49;;;;;;;;;;;;;;;0.72;100.00;100605.34;5075616;28;19912;-61
2022/12/09 00:18:15;;;;;;;;;;;;;;;0.69;100.00;100606.19;5075853;28;19920;-62
2022/12/09 00:20:40;;;;;;;;;;;;;;;0.63;100.00;100608.75;5075750;28;19919;-60
2022/12/09 00:23:05;;;;;;;;;;;;;;;0.63;100.00;100608.75;5075469;28;19913;-62
2022/12/09 00:25:30;;;;;;;;;;;;;;;0.65;100.00;100606.16;5076017;28;20299;-62
2022/12/09 00:27:56;;;;;;;;;;;;;;;0.65;100.00;100603.56;5075418;28;19923;-61
2022/12/09 00:30:21;;;;;;;;;;;;;;;0.61;100.00;100600.13;5075511;28;19917;-61
2022/12/09 00:32:46;;;;;;;;;;;;;;;0.63;100.00;100589.75;5075230;28;20393;-61
2022/12/09 00:35:11;;;;;;;;;;;;;;;0.66;100.00;100600.13;5075385;28;20010;-61
2022/12/09 00:37:36;;;;;;;;;;;;;;;0.67;100.00;100604.47;5075310;28;19912;-60
2022/12/09 00:40:03;;;;;;;;;;;;;;;0.67;100.00;100601.88;5075121;28;20105;-61
2022/12/09 00:42:28;;;;;;;;;;;;;;;0.71;100.00;100606.19;5075235;28;20473;-61
2022/12/09 00:44:53;;;;;;;;;;;;;;;0.70;100.00;100604.47;5075124;28;20002;-61
2022/12/09 00:47:18;;;;;;;;;;;;;;;0.68;100.00;100608.75;5074868;28;20375;-62
2022/12/09 00:49:44;;;;;;;;;;;;;;;0.68;100.00;100607.03;5075109;28;19923;-61
2022/12/09 00:52:09;;;;;;;;;;;;;;;0.66;100.00;100600.13;5075522;28;19916;-62
2022/12/09 00:54:34;;;;;;;;;;;;;;;0.65;100.00;100604.44;5074863;28;19916;-62
2022/12/09 00:56:59;;;;;;;;;;;;;;;0.63;100.00;100603.56;5074747;28;19948;-62
2022/12/09 00:59:25;;;;;;;;;;;;;;;0.64;100.00;100607.91;5074805;28;19912;-61
2022/12/09 01:01:50;;;;;;;;;;;;;;;0.64;100.00;100613.09;5074703;28;19970;-61
2022/12/09 01:04:16;;;;;;;;;;;;;;;0.66;100.00;100610.50;5074476;28;19928;-61
2022/12/09 01:06:41;;;;;;;;;;;;;;;0.67;100.00;100615.69;5074826;28;19913;-63
2022/12/09 01:09:06;;;;;;;;;;;;;;;0.68;100.00;100613.94;5056694;28;20367;-62
2022/12/09 01:11:32;;;;;;;;;;;;;;;0.66;100.00;100615.66;5074041;28;20390;-62
2022/12/09 01:13:59;;;;;;;;;;;;;;;0.67;100.00;100613.09;5074599;28;19919;-61
2022/12/09 01:16:25;;;;;;;;;;;;;;;0.68;100.00;100619.13;5074487;28;20377;-60
2022/12/09 01:18:51;;;;;;;;;;;;;;;0.70;100.00;100620.84;5056377;28;19966;-61
2022/12/09 01:21:16;;;;;;;;;;;;;;;0.69;100.00;100616.56;5074675;28;19912;-61
2022/12/09 01:23:41;;;;;;;;;;;;;;;0.69;100.00;100616.56;5074284;28;20403;-62
2022/12/09 01:26:06;;;;;;;;;;;;;;;0.71;100.00;100630.38;5074082;28;19916;-60
2022/12/09 01:28:35;;;;;;;;;;;;;;;0.69;100.00;100613.97;5074207;28;19924;-61
2022/12/09 01:31:07;;;;;;;;;;;;;;;0.70;100.00;100612.25;5055994;28;19916;-61
2022/12/09 01:33:33;;;;;;;;;;;;;;;0.69;100.00;100621.72;5075715;28;20006;-61
2022/12/09 01:35:58;;;;;;;;;;;;;;;0.69;100.00;100624.31;5074284;28;20011;-62
2022/12/09 01:38:23;;;;;;;;;;;;;;;0.67;100.00;100620.88;5074051;28;20011;-62
2022/12/09 01:40:49;;;;;;;;;;;;;;;0.67;100.00;100625.19;5073940;28;19971;-62
2022/12/09 01:43:18;;;;;;;;;;;;;;;0.63;100.00;100633.78;5073769;28;19928;-61
2022/12/09 01:45:43;;;;;;;;;;;;;;;0.61;100.00;100632.91;5055275;28;19919;-61
2022/12/09 01:48:13;;;;;;;;;;;;;;;0.62;100.00;100635.50;5074099;28;19961;-62
2022/12/09 01:50:39;;;;;;;;;;;;;;;0.61;100.00;100626.03;5073965;28;19975;-62
2022/12/09 01:53:05;;;;;;;;;;;;;;;0.60;100.00;100623.41;5073861;28;19913;-62
2022/12/09 01:55:30;;;;;;;;;;;;;;;0.60;100.00;100619.09;5073676;28;20415;-61
2022/12/09 01:57:55;;;;;;;;;;;;;;;0.63;100.00;100626.00;5073403;28;19912;-61
2022/12/09 02:00:20;;;;;;;;;;;;;;;0.63;100.00;100615.66;5055505;28;19921;-61
2022/12/09 02:02:46;;;;;;;;;;;;;;;0.61;100.00;100620.84;5073694;28;19916;-62
2022/12/09 02:05:11;;;;;;;;;;;;;;;0.58;100.00;100613.06;5055830;28;20290;-61
2022/12/09 02:07:37;;;;;;;;;;;;;;;0.54;100.00;100608.72;5073474;28;19974;-62
2022/12/09 02:10:03;;;;;;;;;;;;;;;0.53;100.00;100613.03;5055338;28;20278;-61
2022/12/09 02:12:31;;;;;;;;;;;;;;;0.55;100.00;100611.28;5055335;28;19916;-61
2022/12/09 02:15:00;;;;;;;;;;;;;;;0.55;100.00;100607.88;5073239;28;19957;-61
2022/12/09 02:17:38;;;;;;;;;;;;;;;0.57;100.00;100619.97;5038919;28;19931;-61
2022/12/09 02:20:07;;;;;;;;;;;;;;;0.60;100.00;100620.81;5073275;28;19913;-61
2022/12/09 02:22:34;;;;;;;;;;;;;;;0.58;100.00;100603.53;5073220;28;19908;-60
2022/12/09 02:25:28;;;;;;;;;;;;;;;0.56;100.00;100601.81;5055304;28;20325;-61
2022/12/09 02:28:12;;;;;;;;;;;;;;;0.55;100.00;100600.09;5059769;28;19912;-61
2022/12/09 02:31:03;;;;;;;;;;;;;;;0.56;100.00;100594.03;5073048;28;20252;-61
2022/12/09 02:33:29;;;;;;;;;;;;;;;0.58;100.00;100594.94;5049421;28;19938;-60
2022/12/09 02:36:00;;;;;;;;;;;;;;;0.61;100.00;100594.94;5072975;28;19913;-62
2022/12/09 02:38:26;;;;;;;;;;;;;;;0.64;100.00;100597.53;5054110;28;19924;-62
2022/12/09 02:40:51;;;;;;;;;;;;;;;0.65;100.00;100595.78;5072990;28;19913;-60
2022/12/09 02:43:17;;;;;;;;;;;;;;;0.65;100.00;100607.03;5074604;28;20371;-61
2022/12/09 02:45:42;;;;;;;;;;;;;;;0.62;100.00;100599.25;5055195;28;19913;-61
2022/12/09 02:48:08;;;;;;;;;;;;;;;0.58;100.00;100600.09;5054817;28;20393;-61
2022/12/09 02:50:33;;;;;;;;;;;;;;;0.56;100.00;100602.69;5054791;28;19912;-60
2022/12/09 02:52:59;;;;;;;;;;;;;;;0.57;100.00;100603.56;5055089;28;19916;-62
2022/12/09 02:55:25;;;;;;;;;;;;;;;0.52;100.00;100594.91;5054834;28;19908;-60
2022/12/09 02:57:52;;;;;;;;;;;;;;;0.49;100.00;100597.47;5054005;28;20318;-62
2022/12/09 03:00:18;;;;;;;;;;;;;;;0.43;100.00;100600.03;5054589;28;19916;-62
2022/12/09 03:02:44;;;;;;;;;;;;;;;0.39;100.00;100586.22;5054529;28;19917;-62
2022/12/09 03:05:24;;;;;;;;;;;;;;;0.37;100.00;100597.41;5072547;28;20409;-62
2022/12/09 03:07:49;;;;;;;;;;;;;;;0.35;100.00;100587.03;5072632;28;19922;-62
2022/12/09 03:10:15;;;;;;;;;;;;;;;0.34;100.00;100595.69;5072536;28;19908;-62
2022/12/09 03:12:41;;;;;;;;;;;;;;;0.29;100.00;100592.19;5054760;28;19920;-62
2022/12/09 03:15:07;;;;;;;;;;;;;;;0.28;100.00;100584.44;5038009;28;20117;-62
2022/12/09 03:17:33;;;;;;;;;;;;;;;0.30;100.00;100588.75;5072326;28;20449;-61
2022/12/09 03:19:59;;;;;;;;;;;;;;;0.29;100.00;100586.16;5054412;28;20398;-61
2022/12/09 03:22:28;;;;;;;;;;;;;;;0.29;100.00;100584.41;5037954;28;19923;-61
2022/12/09 03:25:08;;;;;;;;;;;;;;;0.33;100.00;100586.19;5037943;28;19944;-61
2022/12/09 03:27:34;;;;;;;;;;;;;;;0.36;100.00;100587.91;5054315;28;19916;-61
2022/12/09 03:29:59;;;;;;;;;;;;;;;0.36;100.00;100587.91;5054400;28;19924;-62
2022/12/09 03:32:25;;;;;;;;;;;;;;;0.38;100.00;100588.81;5054392;28;20228;-62
2022/12/09 03:34:51;;;;;;;;;;;;;;;0.38;100.00;100579.28;5054485;28;19912;-62
2022/12/09 03:37:16;;;;;;;;;;;;;;;0.40;100.00;100580.19;5054445;28;19913;-62
2022/12/09 03:39:41;;;;;;;;;;;;;;;0.44;100.00;100571.53;5054555;28;19912;-61
2022/12/09 03:42:14;;;;;;;;;;;;;;;0.46;100.00;100575.03;5072043;28;20003;-61
2022/12/09 03:44:44;;;;;;;;;;;;;;;0.43;100.00;100574.16;5072149;28;19923;-62
2022/12/09 03:47:09;;;;;;;;;;;;;;;0.41;100.00;100565.47;5054358;28;19959;-62
2022/12/09 03:49:35;;;;;;;;;;;;;;;0.40;100.00;100569.81;5054429;28;20386;-62
2022/12/09 03:52:03;;;;;;;;;;;;;;;0.42;100.00;100565.50;5054356;28;19912;-62
2022/12/09 03:54:31;;;;;;;;;;;;;;;0.43;100.00;100568.97;5054224;28;19916;-63
2022/12/09 03:56:56;;;;;;;;;;;;;;;0.42;100.00;100567.22;5054062;28;20394;-62
2022/12/09 03:59:23;;;;;;;;;;;;;;;0.41;100.00;100565.47;5054368;28;19913;-63
2022/12/09 04:01:48;;;;;;;;;;;;;;;0.39;100.00;100568.09;5072218;28;19918;-61
2022/12/09 04:04:14;;;;;;;;;;;;;;;0.38;100.00;100565.50;5054091;28;19913;-62
2022/12/09 04:06:39;;;;;;;;;;;;;;;0.37;100.00;100569.81;5054046;28;19916;-62
2022/12/09 04:09:04;;;;;;;;;;;;;;;0.35;100.00;100562.91;5055414;28;20389;-62
2022/12/09 04:11:30;;;;;;;;;;;;;;;0.35;100.00;100565.50;5057687;28;19918;-62
2022/12/09 04:13:55;;;;;;;;;;;;;;;0.34;100.00;100566.34;5075789;28;19916;-63
2022/12/09 04:16:20;;;;;;;;;;;;;;;0.35;100.00;100568.06;5076535;28;19942;-62
2022/12/09 04:18:46;;;;;;;;;;;;;;;0.34;100.00;100562.03;5075726;28;19916;-62
2022/12/09 04:21:11;;;;;;;;;;;;;;;0.32;100.00;100566.31;5076963;28;20276;-61
2022/12/09 04:23:37;;;;;;;;;;;;;;;0.30;100.00;100562.84;5057540;28;20355;-61
2022/12/09 04:26:02;;;;;;;;;;;;;;;0.29;100.00;100574.06;5075379;28;19924;-60
2022/12/09 04:28:27;;;;;;;;;;;;;;;0.23;100.00;100563.72;5075473;28;19916;-61
2022/12/09 04:30:52;;;;;;;;;;;;;;;0.20;100.00;100565.41;5057386;28;19920;-61
2022/12/09 04:33:18;;;;;;;;;;;;;;;0.20;100.00;100570.59;5075321;28;20386;-61
2022/12/09 04:35:43;;;;;;;;;;;;;;;0.17;100.00;100567.97;5075164;28;19961;-60
2022/12/09 04:38:08;;;;;;;;;;;;;;;0.17;100.00;100562.81;5075190;28;19928;-61
2022/12/09 04:40:33;;;;;;;;;;;;;;;0.15;100.00;100555.00;5075003;28;19920;-60
2022/12/09 04:42:59;;;;;;;;;;;;;;;0.12;100.00;100560.19;5075148;28;19920;-61
2022/12/09 04:45:24;;;;;;;;;;;;;;;0.14;100.00;100561.06;5075292;28;19920;-62
2022/12/09 04:47:49;;;;;;;;;;;;;;;0.15;100.00;100570.53;5075095;28;20272;-61
2022/12/09 04:50:14;;;;;;;;;;;;;;;0.13;100.00;100556.75;5056790;28;19917;-61
2022/12/09 04:52:40;;;;;;;;;;;;;;;0.14;100.00;100555.03;5074768;28;19924;-62
2022/12/09 04:55:05;;;;;;;;;;;;;;;0.14;100.00;100553.31;5057023;28;20425;-63
2022/12/09 04:57:31;;;;;;;;;;;;;;;0.15;100.00;100552.44;5056991;28;19919;-62
2022/12/09 04:59:56;;;;;;;;;;;;;;;0.19;100.00;100555.91;5057251;28;19920;-62
2022/12/09 05:02:21;;;;;;;;;;;;;;;0.21;100.00;100557.63;5074965;28;19919;-61
2022/12/09 05:04:47;;;;;;;;;;;;;;;0.17;100.00;100557.63;5074688;28;19913;-61
2022/12/09 05:07:12;;;;;;;;;;;;;;;0.15;100.00;100559.31;5075128;28;19952;-61
2022/12/09 05:09:37;;;;;;;;;;;;;;;0.13;100.00;100555.88;5074559;28;19912;-61
2022/12/09 05:12:03;;;;;;;;;;;;;;;0.12;100.00;100555.00;5074427;28;19916;-62
2022/12/09 05:14:28;;;;;;;;;;;;;;;0.11;100.00;100555.88;5074642;28;19916;-61
2022/12/09 05:16:53;;;;;;;;;;;;;;;0.10;100.00;100553.25;5074605;28;19912;-61
2022/12/09 05:19:18;;;;;;;;;;;;;;;0.11;100.00;100555.00;5074320;28;19924;-61
2022/12/09 05:21:44;;;;;;;;;;;;;;;0.11;100.00;100553.28;5073244;28;19913;-61
2022/12/09 05:24:10;;;;;;;;;;;;;;;0.07;100.00;100554.13;5075014;28;20333;-62
2022/12/09 05:26:35;;;;;;;;;;;;;;;0.03;100.00;100551.53;5074068;28;19908;-62
2022/12/09 05:29:00;;;;;;;;;;;;;;;-0.03;100.00;100549.75;5074110;28;19958;-60
2022/12/09 05:31:26;;;;;;;;;;;;;;;-0.07;100.00;100548.88;5055950;28;19967;-61
2022/12/09 05:33:51;;;;;;;;;;;;;;;-0.06;100.00;100552.34;5074015;28;19912;-61
2022/12/09 05:36:17;;;;;;;;;;;;;;;-0.09;100.00;100545.38;5073834;28;19913;-61
2022/12/09 05:38:43;;;;;;;;;;;;;;;-0.09;100.00;100547.97;5073943;28;19962;-61
2022/12/09 05:41:08;;;;;;;;;;;;;;;-0.09;100.00;100547.13;5056131;28;20310;-61
2022/12/09 05:43:33;;;;;;;;;;;;;;;-0.09;100.00;100549.72;5055791;28;20359;-61
2022/12/09 05:45:59;;;;;;;;;;;;;;;-0.12;100.00;100544.53;5073868;28;19916;-61
2022/12/09 05:48:24;;;;;;;;;;;;;;;-0.12;100.00;100547.97;5073696;28;19942;-61
2022/12/09 05:50:57;;;;;;;;;;;;;;;-0.10;100.00;100550.56;5055697;28;20267;-62
2022/12/09 05:53:22;;;;;;;;;;;;;;;-0.08;100.00;100549.72;5055976;28;19958;-62
2022/12/09 05:55:47;;;;;;;;;;;;;;;-0.09;100.00;100552.31;5073607;28;20378;-62
2022/12/09 05:58:12;;;;;;;;;;;;;;;-0.12;100.00;100550.53;5073536;28;19916;-62
2022/12/09 06:00:37;;;;;;;;;;;;;;;-0.10;100.00;100543.69;5073453;28;20367;-62
2022/12/09 06:03:03;;;;;;;;;;;;;;;-0.12;100.00;100547.13;5073470;28;19920;-61
2022/12/09 06:05:28;;;;;;;;;;;;;;;-0.17;100.00;100541.91;5073454;28;19923;-62
2022/12/09 06:07:53;;;;;;;;;;;;;;;-0.23;100.00;100541.84;5073251;28;19918;-62
2022/12/09 06:10:18;;;;;;;;;;;;;;;-0.25;100.00;100547.88;5073808;28;20276;-61
2022/12/09 06:12:43;;;;;;;;;;;;;;;-0.25;100.00;100546.16;5073558;28;19917;-61
2022/12/09 06:15:09;;;;;;;;;;;;;;;-0.25;100.00;100555.66;5073270;28;20001;-61
2022/12/09 06:17:34;;;;;;;;;;;;;;;-0.22;100.00;100550.50;5055364;28;20395;-62
2022/12/09 06:19:59;;;;;;;;;;;;;;;-0.20;100.00;100549.63;5073063;28;20022;-62
2022/12/09 06:22:25;;;;;;;;;;;;;;;-0.17;100.00;100541.03;5073330;28;20019;-61
2022/12/09 06:24:50;;;;;;;;;;;;;;;-0.18;100.00;100552.25;5073210;28;19912;-62
2022/12/09 06:27:15;;;;;;;;;;;;;;;-0.21;100.00;100547.06;5073098;28;19951;-62
2022/12/09 06:29:41;;;;;;;;;;;;;;;-0.26;100.00;100540.97;5072981;28;20333;-62
2022/12/09 06:32:06;;;;;;;;;;;;;;;-0.30;100.00;100534.06;5071795;28;19959;-62
2022/12/09 06:34:31;;;;;;;;;;;;;;;-0.34;100.00;100540.94;5064460;28;20324;-62
2022/12/09 06:36:57;;;;;;;;;;;;;;;-0.35;100.00;100544.38;5068272;28;20323;-62
2022/12/09 06:39:22;;;;;;;;;;;;;;;-0.38;100.00;100533.16;5072718;28;19920;-62
2022/12/09 06:41:47;;;;;;;;;;;;;;;-0.39;100.00;100542.63;5072033;28;20295;-62
2022/12/09 06:44:13;;;;;;;;;;;;;;;-0.40;100.00;100540.00;5072625;28;20007;-62
2022/12/09 06:46:38;;;;;;;;;;;;;;;-0.43;100.00;100537.41;5054997;28;19916;-62
2022/12/09 06:49:04;;;;;;;;;;;;;;;-0.48;100.00;100539.09;5072842;28;19908;-61
2022/12/09 06:51:29;;;;;;;;;;;;;;;-0.51;100.00;100549.41;5072623;28;19930;-61
2022/12/09 06:53:55;;;;;;;;;;;;;;;-0.55;100.00;100550.28;5072967;28;20020;-61
2022/12/09 06:56:21;;;;;;;;;;;;;;;-0.57;100.00;100547.66;5073163;28;19920;-61
2022/12/09 06:58:46;;;;;;;;;;;;;;;-0.54;100.00;100549.41;5056141;28;19998;-62
2022/12/09 07:01:13;;;;;;;;;;;;;;;-0.53;100.00;100538.22;5072392;28;20018;-62
2022/12/09 07:03:39;;;;;;;;;;;;;;;-0.54;100.00;100541.63;5054784;28;19912;-63
2022/12/09 07:06:04;;;;;;;;;;;;;;;-0.53;100.00;100540.81;5071935;28;19923;-63
2022/12/09 07:08:29;;;;;;;;;;;;;;;-0.54;100.00;100545.09;5071528;28;19920;-62
2022/12/09 07:10:55;;;;;;;;;;;;;;;-0.53;100.00;100543.38;5071955;28;19973;-61
2022/12/09 07:13:20;;;;;;;;;;;;;;;-0.49;100.00;100540.81;5072454;28;19957;-60
2022/12/09 07:15:45;;;;;;;;;;;;;;;-0.49;100.00;100534.78;5072511;28;19916;-61
2022/12/09 07:18:10;;;;;;;;;;;;;;;-0.50;100.00;100539.09;5072500;28;20009;-60
2022/12/09 07:20:36;;;;;;;;;;;;;;;-0.51;100.00;100537.38;5050255;28;19974;-60
2022/12/09 07:23:01;;;;;;;;;;;;;;;-0.52;100.00;100538.22;5074365;28;19939;-60
2022/12/09 07:25:26;;;;;;;;;;;;;;;-0.53;100.00;100536.50;5071788;28;19913;-60
2022/12/09 07:27:51;;;;;;;;;;;;;;;-0.57;100.00;100547.66;5072240;28;19936;-60
2022/12/09 07:30:16;;;;;;;;;;;;;;;-0.62;100.00;100550.22;5072287;28;20287;-60
2022/12/09 07:32:42;;;;;;;;;;;;;;;-0.66;100.00;100548.44;5072506;28;19916;-60
2022/12/09 07:35:07;;;;;;;;;;;;;;;-0.62;100.00;100541.59;5072546;28;19958;-60
2022/12/09 07:37:32;;;;;;;;;;;;;;;-0.61;100.00;100556.22;5054440;28;19963;-60
2022/12/09 07:39:58;;;;;;;;;;;;;;;-0.63;100.00;100542.44;5054254;28;19947;-61
2022/12/09 07:42:23;;;;;;;;;;;;;;;-0.63;100.00;100553.66;5072190;28;19922;-61
2022/12/09 07:44:48;;;;;;;;;;;;;;;-0.57;100.00;100548.53;5075293;28;19948;-60
2022/12/09 07:47:13;;;;;;;;;;;;;;;-0.54;100.00;100554.56;5076300;28;20383;-60
2022/12/09 07:49:38;;;;;;;;;;;;;;;-0.51;100.00;100554.59;5076614;28;20485;-60
2022/12/09 07:52:04;;;;;;;;;;;;;;;-0.51;100.00;100549.41;5076113;28;19939;-60
2022/12/09 07:54:29;;;;;;;;;;;;;;;-0.49;100.00;100555.47;5076050;28;20413;-60
2022/12/09 07:56:54;;;;;;;;;;;;;;;-0.48;100.00;100552.03;5076418;28;19994;-61
2022/12/09 07:59:19;;;;;;;;;;;;;;;-0.47;100.00;100559.81;5076167;28;19912;-60
2022/12/09 08:01:45;;;;;;;;;;;;;;;-0.42;100.00;100565.88;5058356;28;20003;-60
2022/12/09 08:04:10;;;;;;;;;;;;;;;-0.34;100.00;100555.56;5075899;28;19912;-61
2022/12/09 08:06:36;;;;;;;;;;;;;;;-0.34;100.00;100566.78;5058118;28;19912;-60
2022/12/09 08:09:02;;;;;;;;;;;;;;;-0.32;100.00;100564.22;5058005;28;19975;-60
2022/12/09 08:11:28;;;;;;;;;;;;;;;-0.30;100.00;100565.09;5058025;28;19913;-60
2022/12/09 08:13:57;;;;;;;;;;;;;;;-0.28;100.00;100571.13;5076026;28;20019;-60
2022/12/09 08:16:22;;;;;;;;;;;;;;;-0.24;100.00;100566.00;5074906;28;19912;-60
2022/12/09 08:18:48;;;;;;;;;;;;;;;-0.21;100.00;100566.03;5056630;28;19995;-61
2022/12/09 08:21:18;;;;;;;;;;;;;;;-0.20;100.00;100572.91;5074978;28;19965;-60
2022/12/09 08:23:43;;;;;;;;;;;;;;;-0.15;100.00;100571.25;5075119;28;19919;-60
2022/12/09 08:26:09;;;;;;;;;;;;;;;-0.13;100.00;100572.13;5057413;28;19916;-60
2022/12/09 08:28:34;;;;;;;;;;;;;;;-0.15;100.00;100571.25;5057500;28;19920;-61
2022/12/09 08:31:04;;;;;;;;;;;;;;;-0.14;100.00;100562.63;5055775;28;19966;-61
2022/12/09 08:33:31;;;;;;;;;;;;;;;-0.08;100.00;100564.38;5074085;28;19924;-60
2022/12/09 08:35:56;;;;;;;;;;;;;;;-0.06;100.00;100562.69;5074040;28;20406;-61
2022/12/09 08:38:25;;;;;;;;;;;;;;;-0.02;100.00;100560.09;5056442;28;19956;-61
2022/12/09 08:40:50;;;;;;;;;;;;;;;0.00;100.00;100560.13;5056229;28;19966;-59
2022/12/09 08:43:17;;;;;;;;;;;;;;;0.06;100.00;100561.88;5069836;28;19924;-60
2022/12/09 08:45:42;;;;;;;;;;;;;;;0.10;100.00;100564.47;5073941;28;20011;-60
2022/12/09 08:48:07;;;;;;;;;;;;;;;0.18;100.00;100564.50;5074078;28;20008;-60
2022/12/09 08:50:33;;;;;;;;;;;;;;;0.19;100.00;100569.72;5056127;28;19920;-59
2022/12/09 08:52:58;;;;;;;;;;;;;;;0.20;100.00;100568.00;5055490;28;19916;-58
2022/12/09 08:55:23;;;;;;;;;;;;;;;0.20;100.00;100571.44;5054665;28;19920;-59
2022/12/09 08:57:49;;;;;;;;;;;;;;;0.21;100.00;100573.16;5073911;28;20070;-58
2022/12/09 09:00:14;;;;;;;;;;;;;;;0.21;100.00;100575.75;5073567;28;19920;-59
2022/12/09 09:02:40;;;;;;;;;;;;;;;0.21;100.00;100562.81;5073941;28;19920;-59
2022/12/09 09:05:05;;;;;;;;;;;;;;;0.24;100.00;100559.38;5073685;28;19931;-59
2022/12/09 09:07:30;;;;;;;;;;;;;;;0.28;100.00;100562.00;5055693;28;20377;-58
2022/12/09 09:09:56;;;;;;;;;;;;;;;0.35;100.00;100568.06;5055687;28;19912;-59
2022/12/09 09:12:21;;;;;;;;;;;;;;;0.40;100.00;100558.59;5055741;28;19978;-58
2022/12/09 09:14:47;;;;;;;;;;;;;;;0.47;100.00;100558.63;5073878;28;19934;-58
2022/12/09 09:17:13;;;;;;;;;;;;;;;0.51;100.00;100559.50;5073408;28;19923;-59
2022/12/09 09:19:38;;;;;;;;;;;;;;;0.52;100.00;100561.25;5055379;28;19913;-59
2022/12/09 09:22:03;;;;;;;;;;;;;;;0.49;100.00;100556.91;5073345;28;19916;-59
2022/12/09 09:24:29;;;;;;;;;;;;;;;0.45;100.00;100557.75;5073450;28;20385;-59
2022/12/09 09:26:55;;;;;;;;;;;;;;;0.43;100.00;100556.91;5073350;28;20403;-58
2022/12/09 09:29:20;;;;;;;;;;;;;;;0.40;100.00;100556.00;5073369;28;19916;-58
2022/12/09 09:31:47;;;;;;;;;;;;;;;0.41;100.00;100556.00;5073119;28;19924;-59
2022/12/09 09:34:12;;;;;;;;;;;;;;;0.41;100.00;100571.53;5072920;28;19920;-57
2022/12/09 09:36:38;;;;;;;;;;;;;;;0.44;100.00;100570.69;5073236;28;19970;-58
2022/12/09 09:39:03;;;;;;;;;;;;;;;0.46;100.00;100571.56;5073062;28;19923;-59
2022/12/09 09:41:42;;;;;;;;;;;;;;;0.53;100.00;100573.31;5055330;28;19916;-58
2022/12/09 09:44:24;;;;;;;;;;;;;;;0.65;100.00;100575.94;5055610;28;20386;-58
2022/12/09 09:46:50;;;;;;;;;;;;;;;0.79;100.00;100582.03;5055821;28;19919;-58
2022/12/09 09:49:22;;;;;;;;;;;;;;;0.87;100.00;100580.34;5073785;28;19916;-59
2022/12/09 09:51:47;;;;;;;;;;;;;;;0.97;100.00;100592.44;5073885;28;20279;-59
2022/12/09 09:54:12;;;;;;;;;;;;;;;1.13;100.00;100589.03;5073813;28;19916;-58
2022/12/09 09:56:44;;;;;;;;;;;;;;;1.31;100.00;100595.13;5055940;28;19913;-57
2022/12/09 09:59:18;;;;;;;;;;;;;;;1.56;100.00;100597.72;5056085;28;19985;-58
2022/12/09 10:01:45;;;;;;;;;;;;;;;1.80;100.00;100588.19;5073950;28;19967;-58
2022/12/09 10:04:17;;;;;;;;;;;;;;;1.91;100.00;100599.41;5055475;28;19924;-59
2022/12/09 10:06:47;;;;;;;;;;;;;;;2.15;100.00;100597.66;5055141;28;19913;-58
2022/12/09 10:09:18;;;;;;;;;;;;;;;2.42;100.00;100604.53;5055631;28;19912;-58
2022/12/09 10:11:53;;;;;;;;;;;;;;;2.58;100.00;100597.53;5073337;28;20379;-59
2022/12/09 10:14:20;;;;;;;;;;;;;;;2.90;100.00;100586.97;5055384;28;19920;-59
2022/12/09 10:16:51;;;;;;;;;;;;;;;3.04;100.00;100595.56;5055542;28;19912;-58
2022/12/09 10:19:16;;;;;;;;;;;;;;;3.17;100.00;100586.81;5073084;28;20003;-59
2022/12/09 10:21:42;;;;;;;;;;;;;;;3.10;100.00;100579.91;5055367;28;19994;-58
2022/12/09 10:24:13;;;;;;;;;;;;;;;3.05;100.00;100586.88;5073568;28;19959;-59
2022/12/09 10:26:39;;;;;;;;;;;;;;;2.98;100.00;100590.41;5055144;28;20497;-59
2022/12/09 10:29:15;;;;;;;;;;;;;;;2.95;100.00;100586.06;5072945;28;19916;-60
2022/12/09 10:31:40;;;;;;;;;;;;;;;2.91;100.00;100586.09;5072900;28;19920;-60
2022/12/09 10:34:07;;;;;;;;;;;;;;;2.78;100.00;100583.56;5055127;28;19919;-60
2022/12/09 10:36:32;;;;;;;;;;;;;;;2.78;100.00;100574.91;5054946;28;19908;-59
2022/12/09 10:38:57;;;;;;;;;;;;;;;2.75;100.00;100580.97;5072968;28;19969;-59
2022/12/09 10:44:23;;;;;;;;;;;;;;;2.69;100.00;100570.63;5072788;28;19969;-59
2022/12/09 10:46:54;;;;;;;;;;;;;;;2.76;100.00;100561.06;5073000;28;19943;-59
2022/12/09 10:49:20;;;;;;;;;;;;;;;2.73;100.00;100567.16;5055066;28;19974;-59
2022/12/09 10:51:46;;;;;;;;;;;;;;;2.78;100.00;100572.31;5072577;28;20363;-59
2022/12/09 10:54:11;;;;;;;;;;;;;;;2.79;100.00;100567.13;5054667;28;20574;-59
2022/12/09 10:56:38;;;;;;;;;;;;;;;2.86;100.00;100554.91;5072815;28;19912;-59
2022/12/09 10:59:12;;;;;;;;;;;;;;;2.87;100.00;100553.19;5072969;28;19924;-59
2022/12/09 11:01:55;;;;;;;;;;;;;;;2.90;100.00;100555.78;5072378;28;20403;-59
2022/12/09 11:04:37;;;;;;;;;;;;;;;2.78;100.00;100565.38;5072547;28;20386;-58
2022/12/09 11:07:03;;;;;;;;;;;;;;;2.69;100.00;100569.75;5072480;28;19916;-58
2022/12/09 11:09:30;;;;;;;;;;;;;;;2.73;100.00;100580.13;5072656;28;19913;-60
2022/12/09 11:11:55;;;;;;;;;;;;;;;2.85;100.00;100574.00;5072552;28;19956;-60
2022/12/09 11:14:33;;;;;;;;;;;;;;;2.86;100.00;100562.72;5072494;28;20357;-59
2022/12/09 11:17:15;;;;;;;;;;;;;;;2.83;100.00;100565.38;5054469;28;20062;-58
2022/12/09 11:19:41;;;;;;;;;;;;;;;2.78;100.00;100561.91;5054051;28;19919;-59
2022/12/09 11:22:13;;;;;;;;;;;;;;;2.93;100.00;100564.44;5054305;28;19916;-58
2022/12/09 11:24:39;;;;;;;;;;;;;;;3.11;100.00;100568.66;5072343;28;19958;-60
2022/12/09 11:27:17;;;;;;;;;;;;;;;3.35;100.00;100561.56;5072246;28;19920;-60
2022/12/09 11:29:42;;;;;;;;;;;;;;;3.53;100.00;100559.69;5037739;28;19912;-60
2022/12/09 11:32:11;;;;;;;;;;;;;;;3.68;100.00;100555.19;5072260;28;19943;-59
2022/12/09 11:34:36;;;;;;;;;;;;;;;3.74;100.00;100555.13;5072285;28;19912;-59
2022/12/09 11:37:01;;;;;;;;;;;;;;;3.71;100.00;100565.56;5054335;28;19920;-59
2022/12/09 11:39:33;;;;;;;;;;;;;;;3.62;100.00;100570.03;5054011;28;19935;-59
2022/12/09 11:42:19;;;;;;;;;;;;;;;3.57;100.00;100572.63;5053952;28;19928;-59
2022/12/09 11:44:55;;;;;;;;;;;;;;;3.60;100.00;100567.41;5072367;28;19919;-60
2022/12/09 11:47:28;;;;;;;;;;;;;;;3.78;100.00;100569.84;5054642;28;20382;-59
2022/12/09 11:49:55;;;;;;;;;;;;;;;4.08;100.00;100563.50;5054678;28;19944;-59
2022/12/09 11:52:21;;;;;;;;;;;;;;;4.16;100.00;100573.81;5054094;28;19920;-59
2022/12/09 11:54:48;;;;;;;;;;;;;;;4.32;100.00;100570.19;5054614;28;19927;-59
2022/12/09 11:57:27;;;;;;;;;;;;;;;4.31;100.00;100571.06;5071904;28;20310;-60
2022/12/09 11:59:53;;;;;;;;;;;;;;;4.32;100.00;100571.03;5054097;28;19916;-59
2022/12/09 12:02:27;;;;;;;;;;;;;;;4.34;100.00;100573.63;5054114;28;19952;-59
2022/12/09 12:05:00;;;;;;;;;;;;;;;4.27;100.00;100577.16;5054208;28;20013;-59
2022/12/09 12:07:39;;;;;;;;;;;;;;;4.27;100.00;100585.84;5072035;28;19912;-59
2022/12/09 12:10:04;;;;;;;;;;;;;;;4.34;100.00;100573.63;5071820;28;19919;-59
2022/12/09 12:12:34;;;;;;;;;;;;;;;4.43;100.00;100574.41;5071824;28;19912;-59
2022/12/09 12:15:01;;;;;;;;;;;;;;;4.36;100.00;100575.34;5071771;28;19917;-59
2022/12/09 12:17:30;;;;;;;;;;;;;;;4.26;100.00;100575.47;5072268;28;19912;-59
2022/12/09 12:19:56;;;;;;;;;;;;;;;4.21;100.00;100564.22;5054437;28;19920;-59
2022/12/09 12:22:36;;;;;;;;;;;;;;;4.19;100.00;100564.25;5054013;28;20355;-59
2022/12/09 12:25:02;;;;;;;;;;;;;;;4.24;100.00;100562.44;5071738;28;19912;-59
2022/12/09 12:27:30;;;;;;;;;;;;;;;4.13;100.00;100561.69;5071682;28;19931;-59
2022/12/09 12:29:57;;;;;;;;;;;;;;;3.98;100.00;100565.31;5073012;28;20008;-59
2022/12/09 12:32:22;;;;;;;;;;;;;;;3.95;100.00;100569.69;5057552;28;19916;-59
2022/12/09 12:34:50;;;;;;;;;;;;;;;3.81;100.00;100577.66;5057387;28;19913;-59